createdAt,value
2023-02-05T00:01:01.753Z,3.50
2023-02-05T00:03:29.847Z,3.10
2023-02-05T00:05:57.906Z,2.70
2023-02-05T00:08:27.618Z,2.80
2023-02-05T00:10:59.899Z,2.90
2023-02-05T00:13:27.854Z,3.10
2023-02-05T00:15:55.709Z,3.00
2023-02-05T00:18:26.460Z,3.20
2023-02-05T00:20:54.320Z,2.90
2023-02-05T00:23:22.287Z,3.00
2023-02-05T00:25:53.122Z,2.60
2023-02-05T00:28:21.072Z,2.70
2023-02-05T00:30:49.038Z,3.00
2023-02-05T00:33:17.104Z,2.80
2023-02-05T00:35:45.807Z,2.60
2023-02-05T00:38:13.791Z,2.70
2023-02-05T00:40:41.718Z,3.10
2023-02-05T00:43:10.812Z,3.20
2023-02-05T00:45:38.881Z,3.10
2023-02-05T00:48:06.967Z,3.10
2023-02-05T00:50:35.077Z,3.10
2023-02-05T00:53:03.278Z,3.30
2023-02-05T00:55:31.333Z,3.50
2023-02-05T00:58:01.353Z,3.60
2023-02-05T01:00:29.410Z,3.10
2023-02-05T01:03:00.752Z,3.30
2023-02-05T01:05:30.723Z,3.10
2023-02-05T01:07:59.433Z,2.90
2023-02-05T01:10:27.657Z,3.20
2023-02-05T01:12:55.593Z,3.00
2023-02-05T01:15:23.887Z,2.80
2023-02-05T01:17:52.336Z,3.10
2023-02-05T01:20:21.819Z,2.90
2023-02-05T01:22:49.828Z,2.90
2023-02-05T01:25:17.965Z,3.00
2023-02-05T01:27:46.378Z,2.70
2023-02-05T01:30:15.467Z,2.90
2023-02-05T01:32:43.442Z,2.90
2023-02-05T01:35:12.000Z,2.90
2023-02-05T01:37:39.834Z,3.00
2023-02-05T01:40:08.570Z,3.00
2023-02-05T01:42:36.721Z,2.50
2023-02-05T01:45:23.597Z,2.80
2023-02-05T01:47:57.067Z,3.00
2023-02-05T01:50:25.970Z,2.70
2023-02-05T01:52:55.103Z,2.70
2023-02-05T01:55:23.058Z,3.10
2023-02-05T01:57:51.081Z,2.90
2023-02-05T02:00:19.150Z,2.60
2023-02-05T02:02:48.295Z,2.80
2023-02-05T02:05:19.279Z,2.60
2023-02-05T02:07:47.393Z,2.70
2023-02-05T02:10:15.645Z,2.80
2023-02-05T02:12:44.024Z,2.70
2023-02-05T02:15:15.235Z,2.80
2023-02-05T02:17:47.012Z,2.70
2023-02-05T02:20:19.689Z,2.60
2023-02-05T02:23:08.082Z,2.80
2023-02-05T02:26:02.415Z,2.50
2023-02-05T02:28:52.426Z,2.40
2023-02-05T02:31:31.902Z,2.50
2023-02-05T02:34:04.840Z,2.80
2023-02-05T02:36:59.502Z,2.70
2023-02-05T02:39:33.412Z,2.80
2023-02-05T02:42:15.456Z,2.50
2023-02-05T02:44:49.050Z,2.80
2023-02-05T02:47:25.205Z,2.90
2023-02-05T02:49:54.399Z,3.20
2023-02-05T02:52:23.761Z,3.50
2023-02-05T02:54:56.041Z,3.20
2023-02-05T02:57:26.049Z,3.20
2023-02-05T02:59:56.361Z,3.30
2023-02-05T03:02:24.671Z,3.10
2023-02-05T03:04:56.112Z,3.10
2023-02-05T03:07:27.810Z,3.00
2023-02-05T03:09:59.708Z,2.80
2023-02-05T03:12:27.728Z,2.80
2023-02-05T03:14:56.278Z,3.20
2023-02-05T03:17:27.092Z,2.90
2023-02-05T03:20:02.498Z,3.10
2023-02-05T03:22:30.927Z,3.30
2023-02-05T03:24:58.923Z,2.90
2023-02-05T03:27:27.934Z,2.90
2023-02-05T03:29:56.158Z,2.90
2023-02-05T03:32:49.675Z,3.00
2023-02-05T03:35:47.431Z,3.20
2023-02-05T03:38:29.852Z,2.80
2023-02-05T03:41:16.598Z,2.80
2023-02-05T03:43:57.974Z,2.70
2023-02-05T03:46:33.338Z,2.90
2023-02-05T03:49:25.688Z,3.30
2023-02-05T03:52:32.600Z,3.30
2023-02-05T03:55:15.906Z,3.00
2023-02-05T03:57:56.344Z,3.10
2023-02-05T04:00:25.062Z,2.80
2023-02-05T04:02:53.816Z,3.00
2023-02-05T04:05:25.405Z,3.00
2023-02-05T04:07:55.266Z,3.20
2023-02-05T04:10:27.253Z,3.20
2023-02-05T04:12:55.605Z,3.10
2023-02-05T04:15:23.724Z,3.00
2023-02-05T04:17:54.290Z,3.00
2023-02-05T04:20:22.804Z,2.60
2023-02-05T04:22:50.910Z,3.00
2023-02-05T04:25:20.722Z,2.80
2023-02-05T04:27:48.974Z,2.80
2023-02-05T04:30:17.705Z,2.90
2023-02-05T04:32:47.317Z,3.00
2023-02-05T04:35:16.935Z,2.90
2023-02-05T04:37:45.404Z,3.10
2023-02-05T04:40:13.329Z,2.90
2023-02-05T04:42:42.067Z,2.90
2023-02-05T04:45:09.980Z,3.00
2023-02-05T04:47:38.039Z,3.10
2023-02-05T04:50:06.468Z,3.10
2023-02-05T04:52:34.914Z,3.10
2023-02-05T04:55:02.817Z,2.90
2023-02-05T04:57:31.229Z,3.10
2023-02-05T04:59:59.158Z,3.30
2023-02-05T05:02:27.132Z,3.20
2023-02-05T05:04:54.984Z,3.20
2023-02-05T05:07:22.904Z,3.10
2023-02-05T05:09:52.454Z,3.00
2023-02-05T05:12:20.644Z,3.10
2023-02-05T05:14:48.483Z,3.20
2023-02-05T05:17:18.318Z,2.90
2023-02-05T05:19:46.262Z,3.10
2023-02-05T05:22:14.256Z,3.20
2023-02-05T05:24:42.645Z,3.30
2023-02-05T05:27:12.018Z,3.20
2023-02-05T05:29:40.025Z,3.50
2023-02-05T05:32:08.051Z,3.40
2023-02-05T05:34:36.090Z,3.40
2023-02-05T05:37:04.130Z,3.30
2023-02-05T05:39:52.630Z,3.40
2023-02-05T05:42:39.797Z,3.50
2023-02-05T05:45:08.193Z,3.50
2023-02-05T05:47:37.241Z,3.60
2023-02-05T05:50:05.854Z,3.50
2023-02-05T05:52:34.255Z,3.90
2023-02-05T05:55:02.439Z,3.70
2023-02-05T05:57:30.596Z,3.90
2023-02-05T05:59:58.574Z,3.80
2023-02-05T06:02:27.889Z,3.80
2023-02-05T06:04:55.920Z,4.10
2023-02-05T06:07:24.012Z,4.00
2023-02-05T06:09:52.035Z,3.90
2023-02-05T06:12:19.891Z,3.90
2023-02-05T06:14:50.467Z,3.80
2023-02-05T06:17:18.517Z,4.00
2023-02-05T06:19:46.940Z,3.80
2023-02-05T06:22:14.926Z,4.10
2023-02-05T06:24:42.795Z,4.30
2023-02-05T06:27:11.004Z,4.10
2023-02-05T06:29:39.590Z,4.10
2023-02-05T06:32:07.753Z,4.10
2023-02-05T06:34:35.833Z,4.10
2023-02-05T06:37:04.584Z,4.10
2023-02-05T06:39:32.795Z,4.30
2023-02-05T06:42:00.896Z,5.80
2023-02-05T06:44:28.963Z,5.80
2023-02-05T06:46:57.211Z,4.90
2023-02-05T06:49:25.187Z,4.20
2023-02-05T06:51:56.100Z,4.50
2023-02-05T06:54:25.223Z,4.10
2023-02-05T06:56:53.408Z,4.20
2023-02-05T06:59:21.361Z,4.30
2023-02-05T07:01:49.587Z,4.60
2023-02-05T07:04:17.612Z,4.30
2023-02-05T07:06:45.528Z,4.50
2023-02-05T07:09:18.400Z,4.40
2023-02-05T07:11:46.638Z,4.30
2023-02-05T07:14:15.153Z,4.10
2023-02-05T07:16:43.482Z,4.20
2023-02-05T07:19:11.813Z,4.60
2023-02-05T07:21:40.460Z,4.20
2023-02-05T07:24:11.501Z,4.30
2023-02-05T07:26:40.955Z,4.30
2023-02-05T07:29:08.807Z,4.20
2023-02-05T07:31:37.770Z,4.40
2023-02-05T07:34:05.839Z,4.40
2023-02-05T07:36:34.168Z,4.40
2023-02-05T07:39:02.184Z,4.60
2023-02-05T07:41:30.763Z,4.70
2023-02-05T07:43:59.571Z,4.90
2023-02-05T07:46:28.127Z,4.40
2023-02-05T07:48:56.603Z,4.70
2023-02-05T07:51:24.656Z,5.00
2023-02-05T07:53:52.508Z,5.20
2023-02-05T07:56:21.954Z,4.70
2023-02-05T07:58:50.020Z,4.50
2023-02-05T08:01:18.008Z,4.60
2023-02-05T08:03:46.389Z,4.50
2023-02-05T08:06:15.279Z,4.90
2023-02-05T09:36:22.367Z,5.00
2023-02-05T09:39:01.929Z,5.20
2023-02-05T09:41:46.884Z,4.90
2023-02-05T09:44:33.612Z,5.00
2023-02-05T09:47:06.161Z,5.00
2023-02-05T09:50:14.382Z,5.40
2023-02-05T09:52:45.077Z,5.00
2023-02-05T09:55:29.677Z,7.40
2023-02-05T09:58:06.504Z,4.90
2023-02-05T10:00:44.898Z,4.40
2023-02-05T10:03:42.049Z,4.70
2023-02-05T10:06:21.394Z,5.10
2023-02-05T10:09:03.906Z,4.80
2023-02-05T10:11:48.989Z,5.00
2023-02-05T10:14:32.296Z,4.80
2023-02-05T10:17:21.843Z,4.90
2023-02-05T10:20:20.954Z,5.20
2023-02-05T10:23:10.171Z,5.40
2023-02-05T10:25:38.071Z,5.30
2023-02-05T10:28:17.453Z,5.00
2023-02-05T10:30:48.533Z,4.90
2023-02-05T10:33:29.296Z,5.20
2023-02-05T10:54:46.074Z,9.60
2023-02-05T10:57:18.729Z,6.80
2023-02-05T10:59:55.263Z,5.40
2023-02-05T11:02:30.992Z,5.50
2023-02-05T11:05:03.399Z,4.90
2023-02-05T11:07:38.861Z,5.50
2023-02-05T11:10:23.068Z,5.10
2023-02-05T11:12:56.693Z,5.90
2023-02-05T11:15:26.539Z,5.60
2023-02-05T11:18:00.132Z,5.50
2023-02-05T11:20:36.336Z,5.70
2023-02-05T11:23:16.066Z,5.90
2023-02-05T11:25:54.752Z,5.60
2023-02-05T11:28:30.572Z,5.80
2023-02-05T11:30:59.452Z,5.90
2023-02-05T11:33:29.496Z,5.60
2023-02-05T11:36:05.481Z,5.60
2023-02-05T11:38:47.385Z,5.50
2023-02-05T11:41:26.858Z,4.70
2023-02-05T11:43:55.186Z,5.70
2023-02-05T11:46:24.820Z,5.70
2023-02-05T11:49:01.304Z,6.00
2023-02-05T11:51:35.423Z,6.50
2023-02-05T11:54:05.311Z,6.30
2023-02-05T11:56:33.232Z,6.30
2023-02-05T11:59:06.013Z,5.90
2023-02-05T12:01:37.345Z,5.90
2023-02-05T12:04:11.431Z,6.00
2023-02-05T12:06:43.179Z,5.90
2023-02-05T12:09:12.574Z,5.60
2023-02-05T12:12:06.661Z,5.70
2023-02-05T12:14:37.377Z,6.20
2023-02-05T12:17:23.660Z,6.00
2023-02-05T12:20:01.728Z,6.00
2023-02-05T12:23:08.312Z,6.00
2023-02-05T12:25:42.927Z,6.00
2023-02-05T12:28:32.376Z,5.70
2023-02-05T12:31:05.277Z,5.70
2023-02-05T12:33:57.430Z,6.00
2023-02-05T12:36:35.464Z,6.10
2023-02-05T12:39:14.497Z,5.90
2023-02-05T12:41:57.477Z,6.30
2023-02-05T12:44:49.994Z,5.80
2023-02-05T12:47:27.580Z,5.50
2023-02-05T12:50:33.176Z,5.70
2023-02-05T12:53:30.657Z,5.50
2023-02-05T12:56:07.261Z,5.40
2023-02-05T12:58:42.280Z,5.40
2023-02-05T13:03:43.817Z,5.70
2023-02-05T13:06:35.076Z,5.60
2023-02-05T13:09:13.557Z,5.90
2023-02-05T13:11:56.144Z,6.30
2023-02-05T13:14:48.485Z,6.70
2023-02-05T13:17:27.557Z,6.10
2023-02-05T13:20:00.632Z,6.10
2023-02-05T13:22:50.457Z,6.90
2023-02-05T13:25:40.209Z,6.30
2023-02-05T13:28:40.210Z,6.80
2023-02-05T13:31:22.478Z,6.80
2023-02-05T13:33:50.992Z,6.10
2023-02-05T13:36:25.383Z,7.10
2023-02-05T13:39:12.977Z,6.80
2023-02-05T13:42:01.028Z,6.60
2023-02-05T13:44:33.311Z,6.50
2023-02-05T13:47:18.176Z,6.60
2023-02-05T13:50:04.735Z,6.30
2023-02-05T13:52:40.733Z,6.80
2023-02-05T13:55:24.284Z,6.80
2023-02-05T13:58:08.954Z,6.90
2023-02-05T14:00:41.000Z,7.30
2023-02-05T14:03:09.795Z,9.20
2023-02-05T14:05:39.872Z,7.60
2023-02-05T14:08:19.647Z,7.00
2023-02-05T14:10:49.501Z,7.10
2023-02-05T14:13:19.699Z,7.40
2023-02-05T14:15:47.808Z,6.50
2023-02-05T14:18:40.667Z,8.20
2023-02-05T14:21:30.698Z,8.30
2023-02-05T14:24:36.318Z,7.10
2023-02-05T14:27:04.424Z,7.20
2023-02-05T14:29:46.364Z,10.20
2023-02-05T14:32:29.657Z,7.50
2023-02-05T14:34:58.882Z,7.10
2023-02-05T14:37:37.656Z,6.90
2023-02-05T14:40:31.073Z,8.10
2023-02-05T14:43:09.901Z,7.40
2023-02-05T14:45:51.334Z,6.60
2023-02-05T14:48:22.298Z,7.80
2023-02-05T14:51:08.014Z,7.10
2023-02-05T14:53:36.554Z,6.40
2023-02-05T14:56:04.580Z,6.60
2023-02-05T14:58:35.957Z,6.40
2023-02-05T15:01:29.648Z,6.20
2023-02-05T15:04:01.873Z,6.30
2023-02-05T15:06:30.844Z,6.10
2023-02-05T15:09:04.292Z,6.30
2023-02-05T15:11:35.943Z,6.20
2023-02-05T15:14:22.829Z,7.20
2023-02-05T15:17:06.593Z,6.30
2023-02-05T15:19:38.077Z,6.40
2023-02-05T15:22:06.216Z,6.40
2023-02-05T15:24:34.222Z,6.50
2023-02-05T15:27:16.045Z,6.40
2023-02-05T15:29:57.234Z,6.20
2023-02-05T15:32:31.325Z,6.70
2023-02-05T15:35:21.863Z,6.50
2023-02-05T15:37:51.856Z,6.50
2023-02-05T15:40:26.729Z,6.70
2023-02-05T15:43:01.260Z,6.70
2023-02-05T15:45:34.423Z,6.80
2023-02-05T15:48:05.166Z,6.90
2023-02-05T17:53:57.208Z,4.60
2023-02-05T17:56:26.874Z,4.10
2023-02-05T17:58:55.825Z,4.50
2023-02-05T18:01:24.048Z,4.70
2023-02-05T18:03:52.003Z,4.50
2023-02-05T18:06:20.050Z,4.40
2023-02-05T18:08:50.511Z,4.40
2023-02-05T18:11:18.906Z,4.50
2023-02-05T18:13:47.289Z,4.50
2023-02-05T18:16:17.463Z,4.70
2023-02-05T18:18:47.499Z,4.80
2023-02-05T18:21:15.897Z,4.40
2023-02-05T18:23:44.645Z,4.50
2023-02-05T18:26:12.844Z,4.40
2023-02-05T18:28:41.162Z,4.70
2023-02-05T18:31:09.714Z,4.20
2023-02-05T18:33:39.331Z,4.50
2023-02-05T18:36:09.574Z,4.50
2023-02-05T18:38:38.380Z,4.60
2023-02-05T18:41:16.478Z,4.50
2023-02-05T18:43:44.737Z,4.80
2023-02-05T18:46:14.652Z,5.10
2023-02-05T18:48:43.958Z,4.40
2023-02-05T18:51:13.836Z,4.40
2023-02-05T18:53:43.328Z,4.30
2023-02-05T18:56:15.387Z,4.70
2023-02-05T18:58:43.788Z,4.70
2023-02-05T19:01:13.424Z,4.90
2023-02-05T19:03:42.285Z,4.50
2023-02-05T19:06:11.247Z,5.00
2023-02-05T19:08:39.457Z,4.90
2023-02-05T19:11:10.317Z,4.70
2023-02-05T19:13:38.303Z,4.70
2023-02-05T19:16:14.107Z,4.90
2023-02-05T19:18:43.473Z,4.70
2023-02-05T19:21:15.227Z,4.70
2023-02-05T19:23:44.287Z,4.90
2023-02-05T19:26:14.168Z,4.80
2023-02-05T19:28:44.705Z,5.20
2023-02-05T19:31:14.265Z,4.90
2023-02-05T19:33:42.320Z,7.00
2023-02-05T19:36:10.623Z,4.70
2023-02-05T19:38:39.484Z,4.80
2023-02-05T19:41:12.606Z,5.10
2023-02-05T19:43:42.171Z,4.70
2023-02-05T19:46:10.169Z,4.90
2023-02-05T19:48:38.796Z,4.70
2023-02-05T19:51:08.233Z,4.60
2023-02-05T19:53:37.959Z,4.60
2023-02-05T19:56:10.548Z,4.80
2023-02-05T19:58:39.420Z,5.20
2023-02-05T20:01:17.335Z,5.10
2023-02-05T20:03:45.472Z,4.90
2023-02-05T20:06:15.172Z,4.90
2023-02-05T20:08:44.220Z,5.20
2023-02-05T20:11:12.415Z,5.20
2023-02-05T20:13:41.365Z,5.50
2023-02-05T20:16:19.420Z,6.40
2023-02-05T20:18:47.846Z,5.90
2023-02-05T20:21:17.098Z,5.90
2023-02-05T20:23:45.634Z,5.90
2023-02-05T20:26:14.460Z,5.30
2023-02-05T20:29:01.021Z,6.80
2023-02-05T20:31:38.015Z,5.70
2023-02-05T20:34:11.044Z,8.90
2023-02-05T20:36:41.507Z,5.60
2023-02-05T20:39:09.581Z,5.50
2023-02-05T20:41:37.637Z,5.20
2023-02-05T20:44:05.708Z,5.20
2023-02-05T20:46:34.187Z,5.40
2023-02-05T20:49:03.524Z,5.30
2023-02-05T20:51:31.714Z,4.80
2023-02-05T20:53:59.955Z,4.60
2023-02-05T20:56:28.938Z,5.40
2023-02-05T20:59:00.508Z,6.30
2023-02-05T21:01:29.629Z,5.20
2023-02-05T21:04:00.096Z,5.10
2023-02-05T21:06:29.827Z,4.70
2023-02-05T21:08:59.129Z,4.50
2023-02-05T21:11:27.819Z,5.00
2023-02-05T21:13:55.715Z,5.40
2023-02-05T21:16:24.157Z,5.10
2023-02-05T21:18:54.761Z,5.10
2023-02-05T21:21:24.515Z,4.60
2023-02-05T21:23:58.069Z,6.00
2023-02-05T21:26:30.816Z,4.70
2023-02-05T21:29:01.073Z,4.60
2023-02-05T21:31:36.324Z,5.00
2023-02-05T21:34:05.062Z,4.50
2023-02-05T21:36:33.201Z,4.50
2023-02-05T21:39:01.735Z,4.80
2023-02-05T21:41:29.808Z,4.90
2023-02-05T21:43:59.627Z,5.10
2023-02-05T21:46:29.297Z,5.00
2023-02-05T21:48:59.143Z,4.70
2023-02-05T21:51:28.954Z,5.10
2023-02-05T21:53:59.075Z,5.10
2023-02-05T21:56:29.181Z,4.90
2023-02-05T21:58:57.116Z,4.80
2023-02-05T22:01:27.394Z,5.10
2023-02-05T22:04:02.672Z,5.00
2023-02-05T22:06:33.105Z,5.10
2023-02-05T22:09:06.701Z,5.50
2023-02-05T22:11:35.791Z,5.00
2023-02-05T22:14:03.842Z,5.10
2023-02-05T22:16:32.998Z,4.80
2023-02-05T22:19:04.612Z,5.00
2023-02-05T22:21:35.271Z,5.30
2023-02-05T22:24:03.722Z,5.30
2023-02-05T22:26:33.486Z,5.30
2023-02-05T22:29:01.846Z,5.10
2023-02-05T22:31:29.993Z,5.00
2023-02-05T22:33:57.956Z,5.20
2023-02-05T22:36:27.737Z,5.40
2023-02-05T22:38:55.818Z,5.10
2023-02-05T22:41:24.786Z,5.00
2023-02-05T22:43:56.302Z,5.40
2023-02-05T22:48:55.498Z,5.20
2023-02-05T22:51:25.309Z,5.20
2023-02-05T22:53:53.753Z,5.40
2023-02-05T22:56:22.310Z,5.60
2023-02-05T22:58:50.615Z,5.70
2023-02-05T23:01:22.908Z,5.70
2023-02-05T23:03:52.018Z,5.70
2023-02-05T23:06:20.693Z,5.10
2023-02-05T23:08:50.229Z,7.00
2023-02-05T23:11:18.437Z,5.90
2023-02-05T23:13:46.727Z,6.40
2023-02-05T23:16:19.618Z,6.10
2023-02-05T23:18:47.856Z,6.90
2023-02-05T23:21:17.843Z,6.60
2023-02-05T23:23:46.596Z,6.20
2023-02-05T23:26:17.618Z,6.00
2023-02-05T23:28:45.619Z,6.50
2023-02-05T23:31:13.627Z,6.20
2023-02-05T23:33:41.597Z,6.00
2023-02-05T23:36:09.768Z,6.10
2023-02-05T23:38:38.872Z,6.30
2023-02-05T23:41:06.722Z,6.50
2023-02-05T23:43:35.632Z,6.10
2023-02-05T23:46:04.294Z,6.50
2023-02-05T23:48:32.616Z,6.30
2023-02-05T23:51:00.483Z,6.60
2023-02-05T23:53:28.317Z,6.70
2023-02-05T23:55:58.224Z,6.90
2023-02-05T23:58:27.946Z,6.80
